Time;durP1;ratioP1;P1;durP2;ratioP2;P2;SDS_P1;SDS_P2;PMS_P1;PMS_P2;Temp;Humidity;BMP_temperature;BMP_pressure;BME280_temperature;BME280_humidity;BME280_pressure;Samples;Min_cycle;Max_cycle;Signal;HPM_P1;HPM_P2
2022/05/28 00:00:56;;;;;;;;;;;15.50;64.30;;;;;;5056315;28;19952;-71
2022/05/28 00:03:22;;;;;;;;;;;15.50;64.20;;;;;;5039324;28;19917;-71
2022/05/28 00:05:48;;;;;;;;;;;15.40;64.30;;;;;;5057630;28;19991;-72
2022/05/28 00:08:13;;;;;;;;;;;15.50;64.30;;;;;;5047592;28;20011;-71
2022/05/28 00:10:40;;;;;;;;;;;15.40;64.40;;;;;;5048247;28;19913;-71
2022/05/28 00:13:05;;;;;;;;;;;15.40;64.30;;;;;;5029703;28;19952;-72
2022/05/28 00:15:31;;;;;;;;;;;15.40;64.50;;;;;;5048176;28;20011;-71
2022/05/28 00:17:58;;;;;;;;;;;15.40;64.60;;;;;;5048307;28;19913;-71
2022/05/28 00:20:25;;;;;;;;;;;15.30;64.50;;;;;;5067750;28;19917;-72
2022/05/28 00:22:50;;;;;;;;;;;15.30;64.60;;;;;;5067432;28;19924;-71
2022/05/28 00:25:16;;;;;;;;;;;15.30;64.60;;;;;;5066941;28;19908;-72
2022/05/28 00:27:42;;;;;;;;;;;15.30;64.50;;;;;;5068414;28;20005;-71
2022/05/28 00:30:08;;;;;;;;;;;15.20;64.60;;;;;;5058509;28;20013;-72
2022/05/28 00:32:34;;;;;;;;;;;15.20;64.80;;;;;;5048091;28;19935;-71
2022/05/28 00:35:01;;;;;;;;;;;15.20;64.80;;;;;;5047297;28;21505;-72
2022/05/28 00:37:27;;;;;;;;;;;15.20;64.50;;;;;;5047700;28;19912;-71
2022/05/28 00:39:52;;;;;;;;;;;15.20;65.00;;;;;;5057211;28;19951;-71
2022/05/28 00:42:18;;;;;;;;;;;15.20;64.80;;;;;;5067885;28;19992;-71
2022/05/28 00:44:44;;;;;;;;;;;15.10;65.00;;;;;;5065199;28;19922;-71
2022/05/28 00:47:09;;;;;;;;;;;15.10;64.80;;;;;;5061044;28;19924;-72
2022/05/28 00:49:35;;;;;;;;;;;15.10;64.80;;;;;;5028964;28;20013;-71
2022/05/28 00:52:02;;;;;;;;;;;15.10;65.30;;;;;;5057619;28;19978;-71
2022/05/28 00:54:30;;;;;;;;;;;15.10;65.20;;;;;;5048920;28;19924;-71
2022/05/28 00:56:56;;;;;;;;;;;15.00;65.00;;;;;;5067874;28;20489;-72
2022/05/28 00:59:22;;;;;;;;;;;15.00;65.10;;;;;;5065435;28;20019;-71
2022/05/28 01:01:47;;;;;;;;;;;15.00;65.30;;;;;;5049465;28;19921;-72
2022/05/28 01:04:39;;;;;;;;;;;15.00;65.20;;;;;;5047724;28;19920;-71
2022/05/28 01:07:04;;;;;;;;;;;15.00;65.10;;;;;;5042172;28;20362;-71
2022/05/28 01:09:37;;;;;;;;;;;14.90;65.30;;;;;;5042986;28;19913;-71
2022/05/28 01:12:20;;;;;;;;;;;14.90;65.30;;;;;;5064094;28;19916;-71
2022/05/28 01:14:48;;;;;;;;;;;14.90;65.20;;;;;;5027585;28;20000;-72
2022/05/28 01:17:35;;;;;;;;;;;14.80;65.40;;;;;;5064257;28;19916;-71
2022/05/28 01:20:03;;;;;;;;;;;14.80;65.70;;;;;;5066704;28;19908;-71
2022/05/28 01:22:38;;;;;;;;;;;14.80;65.90;;;;;;5065529;28;20602;-71
2022/05/28 01:25:03;;;;;;;;;;;14.80;65.70;;;;;;5067192;28;19912;-71
2022/05/28 01:27:32;;;;;;;;;;;14.80;65.80;;;;;;5064171;28;20478;-71
2022/05/28 01:30:01;;;;;;;;;;;14.80;65.90;;;;;;5061272;28;19913;-71
2022/05/28 01:32:26;;;;;;;;;;;14.70;66.10;;;;;;5060832;28;20027;-72
2022/05/28 01:34:53;;;;;;;;;;;14.70;65.90;;;;;;5066814;28;20007;-71
2022/05/28 01:37:19;;;;;;;;;;;14.70;66.40;;;;;;5063917;28;19924;-72
2022/05/28 01:39:49;;;;;;;;;;;14.70;66.30;;;;;;5042860;28;19913;-72
2022/05/28 01:42:15;;;;;;;;;;;14.70;66.40;;;;;;5055848;28;20523;-72
2022/05/28 01:44:43;;;;;;;;;;;14.70;66.40;;;;;;5066625;28;20008;-71
2022/05/28 01:47:10;;;;;;;;;;;14.70;66.50;;;;;;5045798;28;19916;-71
2022/05/28 01:49:36;;;;;;;;;;;14.60;66.50;;;;;;5066177;28;19916;-71
2022/05/28 01:52:02;;;;;;;;;;;14.60;66.60;;;;;;5063007;28;19916;-71
2022/05/28 01:54:29;;;;;;;;;;;14.60;66.60;;;;;;5028693;28;19920;-71
2022/05/28 01:56:55;;;;;;;;;;;14.60;66.60;;;;;;5047743;28;20013;-71
2022/05/28 01:59:22;;;;;;;;;;;14.60;66.60;;;;;;5048404;28;20007;-71
2022/05/28 02:01:48;;;;;;;;;;;14.60;66.70;;;;;;5043727;28;19917;-71
2022/05/28 02:04:13;;;;;;;;;;;14.60;66.70;;;;;;5066288;28;19960;-71
2022/05/28 02:06:39;;;;;;;;;;;14.60;66.80;;;;;;5065895;28;20305;-71
2022/05/28 02:09:14;;;;;;;;;;;14.60;66.80;;;;;;5049888;28;19924;-71
2022/05/28 02:11:47;;;;;;;;;;;14.60;66.80;;;;;;5046389;28;19912;-71
2022/05/28 02:14:21;;;;;;;;;;;14.50;66.80;;;;;;5061811;28;20694;-71
2022/05/28 02:16:47;;;;;;;;;;;14.60;67.00;;;;;;5065684;28;19912;-71
2022/05/28 02:19:17;;;;;;;;;;;14.50;66.90;;;;;;5063514;28;19916;-71
2022/05/28 02:21:45;;;;;;;;;;;14.50;67.00;;;;;;5048453;28;20011;-71
2022/05/28 02:24:21;;;;;;;;;;;14.50;67.10;;;;;;5062469;28;19962;-72
2022/05/28 02:26:48;;;;;;;;;;;14.50;67.20;;;;;;5065459;28;19913;-72
2022/05/28 02:29:14;;;;;;;;;;;14.50;67.00;;;;;;5043950;28;20436;-71
2022/05/28 02:31:43;;;;;;;;;;;14.50;67.20;;;;;;5045734;28;19915;-71
2022/05/28 02:34:09;;;;;;;;;;;14.40;67.30;;;;;;5053933;28;19916;-71
2022/05/28 02:36:34;;;;;;;;;;;14.40;67.20;;;;;;5065568;28;19916;-72
2022/05/28 02:39:00;;;;;;;;;;;14.40;67.20;;;;;;5053001;28;19917;-71
2022/05/28 02:41:25;;;;;;;;;;;14.40;67.20;;;;;;5027998;28;20508;-71
2022/05/28 02:43:52;;;;;;;;;;;14.40;67.30;;;;;;5048729;28;20023;-71
2022/05/28 02:46:17;;;;;;;;;;;14.40;67.30;;;;;;5065696;28;19999;-72
2022/05/28 02:48:43;;;;;;;;;;;14.40;67.30;;;;;;5063187;28;20009;-71
2022/05/28 02:51:10;;;;;;;;;;;14.30;67.30;;;;;;5066038;28;19913;-72
2022/05/28 02:53:35;;;;;;;;;;;14.30;67.30;;;;;;5039315;28;19913;-71
2022/05/28 02:56:01;;;;;;;;;;;14.30;67.40;;;;;;5044496;28;19965;-71
2022/05/28 02:58:27;;;;;;;;;;;14.30;68.30;;;;;;5065696;28;20417;-71
2022/05/28 03:00:53;;;;;;;;;;;14.30;68.30;;;;;;5052369;28;19917;-71
2022/05/28 03:03:19;;;;;;;;;;;14.30;67.50;;;;;;5045039;28;19925;-71
2022/05/28 03:05:49;;;;;;;;;;;14.30;67.60;;;;;;5056590;28;19920;-71
2022/05/28 03:08:14;;;;;;;;;;;14.30;67.40;;;;;;5058725;28;19909;-72
2022/05/28 03:10:40;;;;;;;;;;;14.30;67.60;;;;;;5053298;28;19923;-71
2022/05/28 03:13:06;;;;;;;;;;;14.30;67.40;;;;;;5065494;28;19908;-71
2022/05/28 03:15:32;;;;;;;;;;;14.20;67.60;;;;;;5062357;28;19916;-71
2022/05/28 03:17:59;;;;;;;;;;;14.20;67.60;;;;;;5065307;28;20395;-71
2022/05/28 03:20:25;;;;;;;;;;;14.20;67.80;;;;;;5062342;28;19963;-71
2022/05/28 03:22:51;;;;;;;;;;;14.20;67.80;;;;;;5065554;28;20569;-71
2022/05/28 03:25:16;;;;;;;;;;;14.20;67.80;;;;;;5062563;28;19920;-72
2022/05/28 03:27:42;;;;;;;;;;;14.20;67.90;;;;;;5065363;28;20370;-71
2022/05/28 03:30:08;;;;;;;;;;;14.20;67.80;;;;;;5056604;28;19912;-71
2022/05/28 03:32:33;;;;;;;;;;;14.20;68.00;;;;;;5064666;28;19912;-71
2022/05/28 03:34:59;;;;;;;;;;;14.20;68.20;;;;;;5065782;28;20284;-71
2022/05/28 03:37:24;;;;;;;;;;;14.20;68.00;;;;;;5066810;28;19919;-71
2022/05/28 03:39:49;;;;;;;;;;;14.20;68.00;;;;;;5049411;28;20512;-71
2022/05/28 03:42:15;;;;;;;;;;;14.20;68.10;;;;;;5046906;28;19921;-71
2022/05/28 03:44:40;;;;;;;;;;;14.20;67.90;;;;;;5029473;28;19917;-71
2022/05/28 03:47:06;;;;;;;;;;;14.20;67.60;;;;;;5050769;28;19970;-71
2022/05/28 03:49:33;;;;;;;;;;;14.10;68.10;;;;;;5069154;28;20024;-71
2022/05/28 03:51:58;;;;;;;;;;;14.10;68.20;;;;;;5056491;28;20380;-71
2022/05/28 03:54:24;;;;;;;;;;;14.10;68.10;;;;;;5049186;28;19948;-71
2022/05/28 03:56:53;;;;;;;;;;;14.10;68.20;;;;;;5053067;28;19923;-71
2022/05/28 03:59:18;;;;;;;;;;;14.20;68.30;;;;;;5068995;28;20007;-71
2022/05/28 04:01:44;;;;;;;;;;;14.10;68.10;;;;;;5052450;28;19920;-71
2022/05/28 04:04:09;;;;;;;;;;;14.10;67.90;;;;;;5068945;28;19917;-71
2022/05/28 04:06:36;;;;;;;;;;;14.10;67.90;;;;;;5066346;28;19916;-71
2022/05/28 04:09:02;;;;;;;;;;;14.10;68.10;;;;;;5055344;28;20558;-71
2022/05/28 04:11:27;;;;;;;;;;;14.10;68.10;;;;;;5049064;28;20045;-71
2022/05/28 04:13:54;;;;;;;;;;;14.00;68.10;;;;;;5063809;28;20426;-71
2022/05/28 04:16:19;;;;;;;;;;;14.00;68.20;;;;;;5067698;28;19932;-71
2022/05/28 04:18:45;;;;;;;;;;;14.00;68.10;;;;;;5063511;28;19921;-71
2022/05/28 04:21:10;;;;;;;;;;;14.00;68.00;;;;;;5067516;28;20361;-71
2022/05/28 04:23:36;;;;;;;;;;;14.10;68.20;;;;;;5064324;28;19989;-71
2022/05/28 04:26:01;;;;;;;;;;;14.00;68.30;;;;;;5067311;28;19913;-71
2022/05/28 04:28:27;;;;;;;;;;;14.10;68.40;;;;;;5065062;28;20533;-71
2022/05/28 04:30:52;;;;;;;;;;;14.10;68.20;;;;;;5054957;28;19920;-71
2022/05/28 04:33:18;;;;;;;;;;;14.00;68.20;;;;;;5023581;28;19952;-71
2022/05/28 04:35:43;;;;;;;;;;;14.10;68.30;;;;;;5035187;28;19916;-71
2022/05/28 04:38:09;;;;;;;;;;;14.10;68.40;;;;;;5038561;28;19917;-71
2022/05/28 04:40:34;;;;;;;;;;;14.10;68.30;;;;;;5049386;28;19917;-71
2022/05/28 04:43:00;;;;;;;;;;;14.10;68.40;;;;;;5046563;28;20389;-71
2022/05/28 04:45:25;;;;;;;;;;;14.10;68.50;;;;;;5067921;28;19982;-71
2022/05/28 04:47:51;;;;;;;;;;;14.10;68.40;;;;;;5050917;28;19916;-71
2022/05/28 04:50:16;;;;;;;;;;;14.10;68.60;;;;;;5063692;28;20339;-71
2022/05/28 04:52:42;;;;;;;;;;;14.10;68.60;;;;;;5055158;28;20024;-71
2022/05/28 04:55:11;;;;;;;;;;;14.10;68.50;;;;;;5056436;28;19917;-71
2022/05/28 04:57:37;;;;;;;;;;;14.10;68.80;;;;;;5067256;28;19916;-71
2022/05/28 05:00:08;;;;;;;;;;;14.10;68.80;;;;;;5061336;28;19999;-71
2022/05/28 05:02:35;;;;;;;;;;;14.10;68.70;;;;;;5029593;28;19916;-71
2022/05/28 05:05:00;;;;;;;;;;;14.10;68.90;;;;;;5056327;28;20389;-72
2022/05/28 05:07:26;;;;;;;;;;;14.10;68.90;;;;;;5066946;28;19923;-71
2022/05/28 05:09:51;;;;;;;;;;;14.10;68.90;;;;;;5048600;28;19920;-72
2022/05/28 05:12:16;;;;;;;;;;;14.00;69.00;;;;;;5067432;28;19944;-71
2022/05/28 05:14:42;;;;;;;;;;;14.10;69.10;;;;;;5064669;28;19924;-71
2022/05/28 05:17:08;;;;;;;;;;;14.00;68.80;;;;;;5067196;28;19912;-71
2022/05/28 05:19:33;;;;;;;;;;;14.10;69.10;;;;;;5064456;28;19922;-71
2022/05/28 05:21:59;;;;;;;;;;;14.10;69.10;;;;;;5059047;28;19917;-71
2022/05/28 05:24:24;;;;;;;;;;;14.10;69.10;;;;;;5067035;28;20003;-71
2022/05/28 05:26:50;;;;;;;;;;;14.10;69.20;;;;;;5064086;28;20599;-71
2022/05/28 05:29:16;;;;;;;;;;;14.10;69.20;;;;;;5067253;28;20532;-72
2022/05/28 05:31:42;;;;;;;;;;;14.10;69.20;;;;;;5061593;28;19986;-72
2022/05/28 05:34:08;;;;;;;;;;;14.10;69.40;;;;;;5067383;28;19935;-72
2022/05/28 05:36:34;;;;;;;;;;;14.10;69.40;;;;;;5051776;28;20314;-71
2022/05/28 05:38:59;;;;;;;;;;;14.20;69.40;;;;;;5032739;28;20512;-71
2022/05/28 05:41:25;;;;;;;;;;;14.20;69.40;;;;;;5054521;28;19925;-72
2022/05/28 05:43:50;;;;;;;;;;;14.10;69.30;;;;;;5053495;28;19963;-71
2022/05/28 05:46:16;;;;;;;;;;;14.20;69.60;;;;;;5052898;28;20779;-71
2022/05/28 05:48:42;;;;;;;;;;;14.20;69.60;;;;;;5066701;28;19919;-71
2022/05/28 05:51:08;;;;;;;;;;;14.20;69.40;;;;;;5064203;28;20377;-71
2022/05/28 05:53:34;;;;;;;;;;;14.30;69.50;;;;;;5051902;28;19921;-71
2022/05/28 05:55:59;;;;;;;;;;;14.30;69.30;;;;;;5046577;28;19920;-71
2022/05/28 05:58:25;;;;;;;;;;;14.30;69.50;;;;;;5066396;28;19950;-71
2022/05/28 06:00:50;;;;;;;;;;;14.30;69.30;;;;;;5056130;28;19917;-72
2022/05/28 06:03:16;;;;;;;;;;;14.30;69.00;;;;;;5064640;28;19916;-72
2022/05/28 06:05:41;;;;;;;;;;;14.40;69.10;;;;;;5066403;28;19916;-71
2022/05/28 06:08:07;;;;;;;;;;;14.40;69.30;;;;;;5058446;28;19917;-71
2022/05/28 06:10:32;;;;;;;;;;;14.40;69.40;;;;;;5046550;28;20328;-71
2022/05/28 06:12:58;;;;;;;;;;;14.40;69.10;;;;;;5058288;28;19970;-71
2022/05/28 06:15:23;;;;;;;;;;;14.50;69.70;;;;;;5066081;28;19923;-71
2022/05/28 06:17:49;;;;;;;;;;;14.50;69.10;;;;;;5063764;28;19916;-72
2022/05/28 06:20:14;;;;;;;;;;;14.50;68.90;;;;;;5065652;28;19923;-72
2022/05/28 06:22:40;;;;;;;;;;;14.60;69.20;;;;;;5063254;28;20031;-72
2022/05/28 06:25:05;;;;;;;;;;;14.50;69.10;;;;;;5066014;28;20266;-72
2022/05/28 06:27:32;;;;;;;;;;;14.60;68.80;;;;;;5051797;28;19966;-71
2022/05/28 06:29:57;;;;;;;;;;;14.60;68.90;;;;;;5066092;28;20009;-72
2022/05/28 06:32:23;;;;;;;;;;;14.60;68.90;;;;;;5061936;28;19951;-71
2022/05/28 06:34:48;;;;;;;;;;;14.60;69.00;;;;;;5045889;28;19912;-72
2022/05/28 06:37:15;;;;;;;;;;;14.60;68.90;;;;;;5045661;28;20687;-72
2022/05/28 06:39:40;;;;;;;;;;;14.60;68.60;;;;;;5045343;28;19916;-71
2022/05/28 06:42:06;;;;;;;;;;;14.70;68.90;;;;;;5045647;28;19928;-72
2022/05/28 06:44:32;;;;;;;;;;;14.80;68.70;;;;;;5060768;28;20652;-71
2022/05/28 06:46:57;;;;;;;;;;;14.80;68.70;;;;;;5065613;28;19920;-72
2022/05/28 06:49:23;;;;;;;;;;;14.80;68.60;;;;;;5063034;28;19950;-72
2022/05/28 06:51:50;;;;;;;;;;;14.80;68.30;;;;;;5065634;28;20019;-71
2022/05/28 06:54:15;;;;;;;;;;;14.90;68.30;;;;;;5047839;28;20703;-71
2022/05/28 06:56:41;;;;;;;;;;;14.90;67.80;;;;;;5065349;28;19955;-72
2022/05/28 06:59:06;;;;;;;;;;;14.90;68.20;;;;;;5062897;28;20544;-71
2022/05/28 07:01:32;;;;;;;;;;;14.90;68.00;;;;;;5049716;28;19920;-72
2022/05/28 07:03:57;;;;;;;;;;;14.90;67.80;;;;;;5048984;28;19917;-72
2022/05/28 07:06:23;;;;;;;;;;;15.00;67.60;;;;;;5065490;28;19916;-71
2022/05/28 07:08:49;;;;;;;;;;;15.00;67.50;;;;;;5054611;28;20332;-72
2022/05/28 07:11:14;;;;;;;;;;;15.00;67.20;;;;;;5064976;28;20072;-71
2022/05/28 07:13:40;;;;;;;;;;;15.10;67.40;;;;;;5063794;28;20494;-72
2022/05/28 07:16:06;;;;;;;;;;;15.00;66.80;;;;;;5045763;28;19931;-71
2022/05/28 07:18:35;;;;;;;;;;;15.10;67.30;;;;;;5065262;28;19982;-72
2022/05/28 07:21:01;;;;;;;;;;;15.10;67.40;;;;;;5062262;28;19912;-72
2022/05/28 07:23:27;;;;;;;;;;;15.10;67.10;;;;;;5043900;28;19921;-71
2022/05/28 07:26:06;;;;;;;;;;;15.10;67.10;;;;;;5036616;28;20003;-71
2022/05/28 07:28:33;;;;;;;;;;;15.10;67.10;;;;;;5034287;28;19921;-71
2022/05/28 07:31:00;;;;;;;;;;;15.10;67.00;;;;;;5055256;28;19917;-72
2022/05/28 07:33:26;;;;;;;;;;;15.20;66.90;;;;;;5065177;28;20355;-71
2022/05/28 07:35:52;;;;;;;;;;;15.20;66.80;;;;;;5052333;28;19990;-72
2022/05/28 07:38:18;;;;;;;;;;;15.30;66.70;;;;;;5037175;28;19921;-72
2022/05/28 07:40:43;;;;;;;;;;;15.30;66.50;;;;;;5051175;28;19920;-72
2022/05/28 07:43:10;;;;;;;;;;;15.40;66.50;;;;;;5036023;28;19945;-72
2022/05/28 07:45:37;;;;;;;;;;;15.40;66.30;;;;;;5034752;28;19970;-72
2022/05/28 07:48:03;;;;;;;;;;;15.40;66.30;;;;;;5064972;28;19920;-72
2022/05/28 07:50:28;;;;;;;;;;;15.30;66.40;;;;;;5062282;28;19916;-73
2022/05/28 07:52:53;;;;;;;;;;;15.30;66.40;;;;;;5056859;28;19917;-72
2022/05/28 07:55:19;;;;;;;;;;;15.30;66.60;;;;;;5043038;28;19928;-72
2022/05/28 07:57:45;;;;;;;;;;;15.30;66.60;;;;;;5064377;28;19916;-71
2022/05/28 08:00:10;;;;;;;;;;;15.30;66.50;;;;;;5060330;28;19971;-71
2022/05/28 08:02:36;;;;;;;;;;;15.30;66.50;;;;;;5059678;28;19923;-72
2022/05/28 08:05:01;;;;;;;;;;;15.40;66.60;;;;;;5064759;28;19912;-72
2022/05/28 08:07:27;;;;;;;;;;;15.40;66.50;;;;;;5061417;28;20363;-72
2022/05/28 08:09:52;;;;;;;;;;;15.40;66.00;;;;;;5044643;28;19917;-71
2022/05/28 08:12:18;;;;;;;;;;;15.50;65.90;;;;;;5025010;28;19976;-71
2022/05/28 08:14:43;;;;;;;;;;;15.50;65.30;;;;;;5064725;28;19966;-72
2022/05/28 08:17:09;;;;;;;;;;;15.60;65.70;;;;;;5061810;28;20462;-72
2022/05/28 08:19:35;;;;;;;;;;;15.60;65.20;;;;;;5064337;28;19956;-71
2022/05/28 08:24:45;;;;;;;;;;;15.70;65.10;;;;;;5047478;28;20479;-72
2022/05/28 08:27:10;;;;;;;;;;;15.80;64.70;;;;;;5051336;28;19920;-71
2022/05/28 08:29:36;;;;;;;;;;;15.80;64.90;;;;;;5068096;28;19948;-72
2022/05/28 08:32:01;;;;;;;;;;;15.70;65.00;;;;;;5059496;28;19934;-72
2022/05/28 08:34:27;;;;;;;;;;;15.70;65.10;;;;;;5068196;28;19995;-72
2022/05/28 08:36:52;;;;;;;;;;;15.60;65.00;;;;;;5066611;28;19912;-71
2022/05/28 08:39:18;;;;;;;;;;;15.50;65.30;;;;;;5051887;28;20332;-72
2022/05/28 08:41:49;;;;;;;;;;;15.50;65.60;;;;;;5048413;28;19928;-71
2022/05/28 08:44:21;;;;;;;;;;;15.60;65.50;;;;;;5037627;28;19921;-72
2022/05/28 08:46:50;;;;;;;;;;;15.60;65.20;;;;;;5027856;28;20000;-71
2022/05/28 08:49:16;;;;;;;;;;;15.60;64.90;;;;;;5058613;28;19920;-72
2022/05/28 08:52:13;;;;;;;;;;;15.60;65.00;;;;;;5067974;28;19991;-72
2022/05/28 08:54:56;;;;;;;;;;;15.60;64.70;;;;;;5005631;28;19960;-72
2022/05/28 08:57:26;;;;;;;;;;;15.70;64.70;;;;;;5036673;28;19917;-72
2022/05/28 08:59:59;;;;;;;;;;;15.70;64.70;;;;;;5061391;28;19951;-72
2022/05/28 09:02:39;;;;;;;;;;;15.70;64.20;;;;;;5046563;28;19920;-72
2022/05/28 09:05:07;;;;;;;;;;;15.60;64.20;;;;;;5063168;28;19920;-72
2022/05/28 09:07:32;;;;;;;;;;;15.70;64.50;;;;;;5040005;28;19914;-71
2022/05/28 09:09:58;;;;;;;;;;;15.80;64.00;;;;;;5040368;28;19923;-72
2022/05/28 09:12:27;;;;;;;;;;;15.80;63.70;;;;;;5047316;28;19924;-72
2022/05/28 09:14:53;;;;;;;;;;;15.90;63.80;;;;;;5064440;28;19917;-73
2022/05/28 09:17:26;;;;;;;;;;;16.00;63.40;;;;;;5066756;28;19912;-71
2022/05/28 09:19:53;;;;;;;;;;;16.00;63.50;;;;;;5063153;28;19916;-71
2022/05/28 09:22:20;;;;;;;;;;;15.90;63.60;;;;;;5065941;28;20392;-72
2022/05/28 09:24:46;;;;;;;;;;;15.90;63.70;;;;;;5063546;28;19920;-71
2022/05/28 09:27:30;;;;;;;;;;;15.80;63.50;;;;;;5051949;28;19927;-71
2022/05/28 09:29:55;;;;;;;;;;;15.80;63.90;;;;;;5051776;28;19917;-71
2022/05/28 09:32:34;;;;;;;;;;;15.80;63.90;;;;;;5066183;28;19912;-72
2022/05/28 09:35:18;;;;;;;;;;;15.80;63.90;;;;;;5063780;28;19923;-72
2022/05/28 09:38:01;;;;;;;;;;;15.80;63.90;;;;;;5064431;28;20377;-71
2022/05/28 09:40:33;;;;;;;;;;;15.90;63.90;;;;;;5054158;28;20015;-71
2022/05/28 09:43:08;;;;;;;;;;;16.00;63.20;;;;;;5067187;28;19925;-72
2022/05/28 09:45:46;;;;;;;;;;;16.10;63.30;;;;;;5048487;28;20562;-72
2022/05/28 09:48:22;;;;;;;;;;;16.20;63.00;;;;;;5066756;28;19919;-71
2022/05/28 09:50:48;;;;;;;;;;;16.20;62.80;;;;;;5063819;28;20624;-72
2022/05/28 09:56:09;;;;;;;;;;;16.40;62.40;;;;;;5054355;28;19958;-72
2022/05/28 09:58:38;;;;;;;;;;;16.50;62.10;;;;;;5066176;28;20353;-72
2022/05/28 10:01:30;;;;;;;;;;;16.60;61.80;;;;;;5058041;28;20408;-72
2022/05/28 10:06:47;;;;;;;;;;;16.60;61.90;;;;;;5063087;28;19927;-71
2022/05/28 10:09:14;;;;;;;;;;;16.50;62.00;;;;;;5051862;28;19991;-71
2022/05/28 10:11:53;;;;;;;;;;;16.50;62.00;;;;;;5053344;28;20085;-72
2022/05/28 10:14:19;;;;;;;;;;;16.50;62.20;;;;;;5065850;28;20427;-71
2022/05/28 10:16:48;;;;;;;;;;;16.40;62.20;;;;;;5063132;28;19912;-70
2022/05/28 10:19:18;;;;;;;;;;;16.40;63.00;;;;;;5056631;28;20381;-71
2022/05/28 10:21:47;;;;;;;;;;;16.40;63.10;;;;;;5062460;28;20593;-71
2022/05/28 10:24:18;;;;;;;;;;;16.40;63.20;;;;;;5059135;28;19916;-71
2022/05/28 10:26:48;;;;;;;;;;;16.40;62.80;;;;;;5043951;28;19919;-71
2022/05/28 10:29:24;;;;;;;;;;;16.50;62.10;;;;;;5065905;28;19908;-73
2022/05/28 10:31:50;;;;;;;;;;;16.60;61.80;;;;;;5062974;28;19966;-73
2022/05/28 10:34:29;;;;;;;;;;;16.60;61.30;;;;;;5065677;28;19924;-71
2022/05/28 10:37:04;;;;;;;;;;;16.60;62.20;;;;;;5062692;28;20039;-72
2022/05/28 10:39:30;;;;;;;;;;;16.80;61.20;;;;;;5048421;28;20633;-73
2022/05/28 10:41:55;;;;;;;;;;;17.00;60.60;;;;;;5045128;28;19928;-73
2022/05/28 10:44:23;;;;;;;;;;;17.10;59.90;;;;;;5064875;28;20621;-73
2022/05/28 10:47:07;;;;;;;;;;;17.10;59.90;;;;;;5060433;28;20369;-73
2022/05/28 10:49:44;;;;;;;;;;;17.00;60.30;;;;;;5045419;28;19923;-74
2022/05/28 10:52:36;;;;;;;;;;;16.90;60.40;;;;;;5042968;28;20281;-71
2022/05/28 10:55:10;;;;;;;;;;;16.80;59.70;;;;;;5021936;28;19996;-74
2022/05/28 10:57:54;;;;;;;;;;;16.70;59.50;;;;;;5027759;28;19924;-71
2022/05/28 11:00:19;;;;;;;;;;;16.70;61.10;;;;;;5059015;28;19913;-72
2022/05/28 11:03:00;;;;;;;;;;;16.80;60.70;;;;;;5044162;28;19927;-72
2022/05/28 11:05:25;;;;;;;;;;;16.80;60.40;;;;;;5064891;28;19920;-72
2022/05/28 11:07:51;;;;;;;;;;;17.00;59.10;;;;;;5060540;28;19920;-72
2022/05/28 11:10:35;;;;;;;;;;;17.10;59.20;;;;;;5046118;28;19993;-72
2022/05/28 11:13:04;;;;;;;;;;;17.20;59.20;;;;;;5049271;28;19913;-72
2022/05/28 11:15:48;;;;;;;;;;;17.40;58.90;;;;;;5065157;28;19909;-72
2022/05/28 11:18:17;;;;;;;;;;;17.50;59.00;;;;;;5063027;28;19966;-72
2022/05/28 11:20:48;;;;;;;;;;;17.60;58.80;;;;;;5056689;28;20687;-72
2022/05/28 11:23:32;;;;;;;;;;;17.60;58.70;;;;;;5046497;28;19921;-73
2022/05/28 11:26:23;;;;;;;;;;;17.70;58.90;;;;;;5028683;28;19916;-72
2022/05/28 11:29:07;;;;;;;;;;;17.70;58.90;;;;;;5045309;28;19925;-73
2022/05/28 11:31:48;;;;;;;;;;;17.80;58.90;;;;;;5065274;28;19912;-72
2022/05/28 11:34:25;;;;;;;;;;;17.90;58.70;;;;;;5062812;28;19917;-72
2022/05/28 11:36:58;;;;;;;;;;;18.00;58.70;;;;;;5065267;28;20461;-72
2022/05/28 11:39:24;;;;;;;;;;;18.00;58.90;;;;;;5046813;28;20674;-72
2022/05/28 11:41:54;;;;;;;;;;;18.00;59.20;;;;;;5056369;28;19924;-72
2022/05/28 11:44:44;;;;;;;;;;;18.00;59.10;;;;;;5044687;28;19912;-72
2022/05/28 11:47:12;;;;;;;;;;;18.00;59.40;;;;;;5051261;28;19923;-72
2022/05/28 11:52:53;;;;;;;;;;;18.00;59.60;;;;;;5060807;28;19974;-73
2022/05/28 11:55:21;;;;;;;;;;;18.10;59.70;;;;;;5047035;28;19920;-73
2022/05/28 11:57:52;;;;;;;;;;;18.20;59.20;;;;;;5068263;28;19924;-72
2022/05/28 12:00:21;;;;;;;;;;;18.30;58.90;;;;;;5065694;28;19986;-72
2022/05/28 12:02:50;;;;;;;;;;;18.40;58.90;;;;;;5068587;28;19928;-72
2022/05/28 12:05:19;;;;;;;;;;;18.40;58.90;;;;;;5065771;28;19916;-73
2022/05/28 12:07:46;;;;;;;;;;;18.40;58.90;;;;;;5066271;28;19951;-72
2022/05/28 12:10:31;;;;;;;;;;;18.40;59.10;;;;;;5046641;28;19913;-73
2022/05/28 12:12:58;;;;;;;;;;;18.40;59.10;;;;;;5061960;28;20511;-72
2022/05/28 12:15:26;;;;;;;;;;;18.40;58.90;;;;;;5046667;28;19927;-72
2022/05/28 12:17:56;;;;;;;;;;;18.40;59.00;;;;;;5051432;28;20270;-72
2022/05/28 12:20:32;;;;;;;;;;;18.50;59.00;;;;;;5052429;28;19928;-72
2022/05/28 12:23:00;;;;;;;;;;;18.60;58.80;;;;;;5066794;28;19921;-72
2022/05/28 12:25:28;;;;;;;;;;;18.70;58.60;;;;;;5067876;28;19982;-72
2022/05/28 12:27:54;;;;;;;;;;;18.80;58.70;;;;;;5064332;28;19924;-72
2022/05/28 12:30:22;;;;;;;;;;;18.80;58.80;;;;;;5049114;28;19978;-72
2022/05/28 12:32:49;;;;;;;;;;;18.80;58.30;;;;;;5059976;28;19917;-72
2022/05/28 12:35:14;;;;;;;;;;;18.70;58.00;;;;;;5068166;28;19991;-72
2022/05/28 12:37:48;;;;;;;;;;;18.70;58.80;;;;;;5063103;28;20011;-72
2022/05/28 12:40:23;;;;;;;;;;;18.80;58.90;;;;;;5047980;28;19994;-72
2022/05/28 12:42:48;;;;;;;;;;;18.90;58.40;;;;;;5058094;28;20297;-72
2022/05/28 12:45:16;;;;;;;;;;;19.10;57.80;;;;;;5067960;28;19915;-72
2022/05/28 12:47:42;;;;;;;;;;;19.20;58.20;;;;;;5065252;28;19962;-72
2022/05/28 12:50:16;;;;;;;;;;;19.30;58.00;;;;;;5067624;28;19919;-72
2022/05/28 12:53:02;;;;;;;;;;;19.40;57.60;;;;;;5058897;28;19917;-72
2022/05/28 12:55:31;;;;;;;;;;;19.60;57.30;;;;;;5036855;28;19916;-72
2022/05/28 12:57:59;;;;;;;;;;;19.60;57.00;;;;;;5054673;28;19923;-72
2022/05/28 13:00:26;;;;;;;;;;;19.60;56.40;;;;;;5061543;28;19919;-72
2022/05/28 13:02:52;;;;;;;;;;;19.50;57.20;;;;;;5049764;28;19929;-72
2022/05/28 13:05:29;;;;;;;;;;;19.40;57.40;;;;;;5048954;28;19989;-72
2022/05/28 13:08:07;;;;;;;;;;;19.30;57.20;;;;;;5059107;28;19917;-72
2022/05/28 13:10:32;;;;;;;;;;;19.30;57.10;;;;;;5043199;28;19920;-73
2022/05/28 13:13:21;;;;;;;;;;;19.30;58.10;;;;;;5046074;28;19916;-72
2022/05/28 13:15:52;;;;;;;;;;;19.40;57.30;;;;;;5065907;28;19969;-72
2022/05/28 13:18:36;;;;;;;;;;;19.60;57.00;;;;;;5064242;28;20015;-72
2022/05/28 13:21:07;;;;;;;;;;;19.70;56.40;;;;;;5065760;28;19934;-72
2022/05/28 13:23:51;;;;;;;;;;;19.70;55.90;;;;;;5054708;28;19920;-72
2022/05/28 13:26:26;;;;;;;;;;;19.70;55.90;;;;;;5066236;28;19918;-72
2022/05/28 13:28:58;;;;;;;;;;;19.60;56.10;;;;;;5063995;28;19920;-72
2022/05/28 13:31:29;;;;;;;;;;;19.50;56.20;;;;;;5066769;28;19919;-72
2022/05/28 13:33:55;;;;;;;;;;;19.50;56.40;;;;;;5063051;28;20019;-73
2022/05/28 13:36:22;;;;;;;;;;;19.40;56.80;;;;;;5060919;28;19912;-72
2022/05/28 13:38:51;;;;;;;;;;;19.40;57.00;;;;;;5034665;28;19944;-72
2022/05/28 13:41:27;;;;;;;;;;;19.50;56.40;;;;;;5020260;28;19919;-72
2022/05/28 13:43:55;;;;;;;;;;;19.70;56.40;;;;;;5045171;28;19962;-72
2022/05/28 13:46:21;;;;;;;;;;;19.80;55.50;;;;;;5065583;28;19913;-72
2022/05/28 13:48:51;;;;;;;;;;;19.80;55.20;;;;;;5065940;28;19958;-72
2022/05/28 13:51:17;;;;;;;;;;;19.70;55.30;;;;;;5062863;28;19913;-72
2022/05/28 13:53:45;;;;;;;;;;;19.60;55.90;;;;;;5051053;28;19913;-72
2022/05/28 13:56:15;;;;;;;;;;;19.60;56.00;;;;;;5060092;28;20534;-72
2022/05/28 13:58:42;;;;;;;;;;;19.50;56.00;;;;;;5065799;28;19920;-72
2022/05/28 14:01:11;;;;;;;;;;;19.40;57.00;;;;;;5050396;28;20006;-72
2022/05/28 14:03:38;;;;;;;;;;;19.40;56.20;;;;;;5045545;28;19917;-72
2022/05/28 14:06:11;;;;;;;;;;;19.30;55.80;;;;;;5055797;28;19920;-72
2022/05/28 14:08:41;;;;;;;;;;;19.30;56.80;;;;;;5055845;28;19963;-72
2022/05/28 14:11:06;;;;;;;;;;;19.30;56.20;;;;;;5054928;28;19917;-72
2022/05/28 14:13:33;;;;;;;;;;;19.30;55.10;;;;;;5065704;28;19931;-72
2022/05/28 14:15:59;;;;;;;;;;;19.40;55.80;;;;;;5062860;28;19987;-73
2022/05/28 14:18:29;;;;;;;;;;;19.60;55.00;;;;;;5059250;28;20390;-72
2022/05/28 14:21:07;;;;;;;;;;;19.60;54.60;;;;;;5056447;28;20300;-72
2022/05/28 14:23:33;;;;;;;;;;;19.70;55.10;;;;;;5054770;28;20030;-72
2022/05/28 14:26:00;;;;;;;;;;;19.70;54.60;;;;;;5063038;28;19917;-72
2022/05/28 14:28:26;;;;;;;;;;;19.80;54.50;;;;;;5065921;28;19932;-73
2022/05/28 14:30:52;;;;;;;;;;;19.80;54.10;;;;;;5063006;28;19920;-72
2022/05/28 14:33:24;;;;;;;;;;;19.80;54.50;;;;;;5065465;28;19919;-72
2022/05/28 14:35:50;;;;;;;;;;;19.80;54.70;;;;;;5062671;28;20050;-72